Home   Weather   Greece   Corfu   Past weeks
Flag for Greece

Past Weather in Corfu, Greece — Yesterday and Last 2 Weeks

Currently: 72 °F. Passing clouds. (Weather station: Kerkyra Airport, Greece). See more current weather

Past Weather in Corfu — Graph

°F

Corfu Temperature Yesterday

Maximum temperature yesterday: 77 °F (at 2:20 pm)
Minimum temperature yesterday: 57 °F (at 4:20 am)
Average temperature yesterday: 67 °F

High & Low Weather Summary for the Past Weeks

 TemperatureHumidityPressure
High88 °F (Oct 1, 3:50 pm)94% (Sep 27, 3:50 am)30.27 "Hg (Sep 27, 3:50 am)
Low54 °F (Sep 23, 5:50 am)28% (Sep 23, 3:20 pm)29.68 "Hg (Sep 27, 7:50 am)
Average69 °F69%29.96 "Hg
* Reported Sep 21 5:20 pm — Oct 6 5:20 pm, Corfu. Weather by CustomWeather, © 2022

Note: Actual official high and low records may vary slightly from our data, if they occured in-between our weather recording intervals... More about our weather records

Corfu Weather History for the Previous 24 Hours

Scroll right to see more
 ConditionsComfort  
Time TempWeatherWind HumidityBarometerVisibility
5:20 pm
Thu, Oct 6
75 °FPassing clouds.9 mph54%30.21 "HgN/A
4:20 pm75 °FPassing clouds.9 mph47%30.21 "HgN/A
3:50 pm75 °FPassing clouds.10 mph47%30.21 "HgN/A
3:20 pm75 °FPassing clouds.8 mph39%30.24 "HgN/A
2:50 pm75 °FPassing clouds.6 mph39%30.24 "HgN/A
2:20 pm73 °FPassing clouds.5 mph38%30.24 "HgN/A
1:50 pm73 °FPassing clouds.5 mph38%30.24 "HgN/A
1:20 pm73 °FPassing clouds.5 mph41%30.24 "HgN/A
12:50 pm73 °FPassing clouds.5 mph41%30.24 "HgN/A
12:20 pm72 °FPassing clouds.3 mph57%30.27 "HgN/A
11:50 am72 °FPassing clouds.3 mph57%30.27 "HgN/A
11:20 am68 °FSunny.2 mph69%30.27 "Hg10 mi
10:50 am66 °FSunny.2 mph73%30.27 "Hg10 mi
10:20 am66 °FSunny.2 mph78%30.27 "Hg10 mi
9:50 am63 °FSunny.2 mph77%30.27 "Hg10 mi
9:20 am59 °FSunny.2 mph82%30.24 "Hg10 mi
8:50 am59 °FSunny.No wind82%30.24 "Hg10 mi
8:20 am55 °FSunny.3 mph88%30.24 "Hg10 mi
7:50 am57 °FSunny.2 mph82%30.24 "Hg10 mi
7:20 am57 °FClear.2 mph82%30.24 "Hg10 mi
6:20 am57 °FClear.5 mph82%30.24 "Hg10 mi
5:20 am57 °FClear.2 mph82%30.24 "Hg10 mi
4:20 am57 °FClear.2 mph82%30.24 "Hg10 mi
3:50 am57 °FClear.2 mph82%30.24 "Hg10 mi
2:20 am61 °FClear.2 mph77%30.24 "Hg10 mi
1:50 am61 °FClear.2 mph77%30.24 "Hg10 mi
1:20 am61 °FClear.2 mph77%30.24 "Hg10 mi
12:50 am61 °FClear.2 mph77%30.24 "Hg10 mi
12:20 am63 °FClear.2 mph77%30.24 "Hg10 mi
11:20 pm
Wed, Oct 5
64 °FClear.2 mph73%30.24 "Hg10 mi
10:50 pm64 °FClear.2 mph73%30.24 "Hg10 mi
10:20 pm66 °FClear.2 mph68%30.24 "Hg10 mi
9:50 pm66 °FClear.2 mph68%30.24 "Hg10 mi
9:20 pm66 °FClear.2 mph64%30.21 "Hg10 mi
8:50 pm68 °FClear.2 mph60%30.21 "Hg10 mi
8:20 pm68 °FClear.3 mph60%30.21 "Hg10 mi
7:50 pm70 °FClear.5 mph57%30.21 "Hg10 mi
7:20 pm72 °FClear.8 mph53%30.18 "Hg10 mi
Weather by CustomWeather, © 2022

See weather overview